sensor_id;sensor_type;location;lat;lon;timestamp;P1;durP1;ratioP1;P2;durP2;ratioP2
29120;SDS011;16191;49.548;8.658;2022-08-03T00:00:26;1.13;;;1.02;;
29120;SDS011;16191;49.548;8.658;2022-08-03T00:02:52;1.58;;;1.20;;
29120;SDS011;16191;49.548;8.658;2022-08-03T00:05:19;1.13;;;0.80;;
29120;SDS011;16191;49.548;8.658;2022-08-03T00:07:46;1.88;;;1.13;;
29120;SDS011;16191;49.548;8.658;2022-08-03T00:10:14;2.55;;;1.30;;
29120;SDS011;16191;49.548;8.658;2022-08-03T00:12:41;3.92;;;1.05;;
29120;SDS011;16191;49.548;8.658;2022-08-03T00:15:08;2.25;;;1.10;;
29120;SDS011;16191;49.548;8.658;2022-08-03T00:17:40;1.45;;;1.02;;
29120;SDS011;16191;49.548;8.658;2022-08-03T00:20:19;5.65;;;1.40;;
29120;SDS011;16191;49.548;8.658;2022-08-03T00:22:47;3.63;;;1.40;;
29120;SDS011;16191;49.548;8.658;2022-08-03T00:25:14;1.63;;;1.00;;
29120;SDS011;16191;49.548;8.658;2022-08-03T00:27:41;2.75;;;1.17;;
29120;SDS011;16191;49.548;8.658;2022-08-03T00:30:08;1.48;;;1.10;;
29120;SDS011;16191;49.548;8.658;2022-08-03T00:32:35;1.17;;;0.98;;
29120;SDS011;16191;49.548;8.658;2022-08-03T00:35:04;1.63;;;1.10;;
29120;SDS011;16191;49.548;8.658;2022-08-03T00:37:37;1.45;;;1.25;;
29120;SDS011;16191;49.548;8.658;2022-08-03T00:40:07;1.80;;;1.50;;
29120;SDS011;16191;49.548;8.658;2022-08-03T00:45:24;5.70;;;1.20;;
29120;SDS011;16191;49.548;8.658;2022-08-03T00:47:55;1.25;;;1.13;;
29120;SDS011;16191;49.548;8.658;2022-08-03T00:50:22;1.75;;;1.17;;
29120;SDS011;16191;49.548;8.658;2022-08-03T00:52:51;2.53;;;1.30;;
29120;SDS011;16191;49.548;8.658;2022-08-03T00:55:26;3.10;;;1.17;;
29120;SDS011;16191;49.548;8.658;2022-08-03T00:58:13;1.38;;;1.10;;
29120;SDS011;16191;49.548;8.658;2022-08-03T01:01:00;1.90;;;1.17;;
29120;SDS011;16191;49.548;8.658;2022-08-03T01:03:47;5.80;;;1.30;;
29120;SDS011;16191;49.548;8.658;2022-08-03T01:06:35;2.15;;;1.13;;
29120;SDS011;16191;49.548;8.658;2022-08-03T01:09:34;4.03;;;1.20;;
29120;SDS011;16191;49.548;8.658;2022-08-03T01:12:38;2.67;;;1.13;;
29120;SDS011;16191;49.548;8.658;2022-08-03T01:15:15;3.42;;;1.10;;
29120;SDS011;16191;49.548;8.658;2022-08-03T01:17:50;1.40;;;1.00;;
29120;SDS011;16191;49.548;8.658;2022-08-03T01:20:23;1.38;;;0.80;;
29120;SDS011;16191;49.548;8.658;2022-08-03T01:31:14;1.40;;;1.10;;
29120;SDS011;16191;49.548;8.658;2022-08-03T01:33:49;1.92;;;1.13;;
29120;SDS011;16191;49.548;8.658;2022-08-03T01:36:22;2.97;;;1.20;;
29120;SDS011;16191;49.548;8.658;2022-08-03T01:41:29;2.53;;;1.10;;
29120;SDS011;16191;49.548;8.658;2022-08-03T01:43:58;4.65;;;1.30;;
29120;SDS011;16191;49.548;8.658;2022-08-03T01:46:47;1.55;;;1.10;;
29120;SDS011;16191;49.548;8.658;2022-08-03T01:49:16;1.52;;;1.10;;
29120;SDS011;16191;49.548;8.658;2022-08-03T01:51:44;2.97;;;1.10;;
29120;SDS011;16191;49.548;8.658;2022-08-03T01:54:30;2.17;;;1.10;;
29120;SDS011;16191;49.548;8.658;2022-08-03T01:57:08;2.08;;;1.10;;
29120;SDS011;16191;49.548;8.658;2022-08-03T01:59:35;2.13;;;1.20;;
29120;SDS011;16191;49.548;8.658;2022-08-03T02:02:04;1.30;;;1.08;;
29120;SDS011;16191;49.548;8.658;2022-08-03T02:04:52;3.92;;;1.15;;
29120;SDS011;16191;49.548;8.658;2022-08-03T02:07:20;1.60;;;1.10;;
29120;SDS011;16191;49.548;8.658;2022-08-03T02:09:50;3.38;;;1.17;;
29120;SDS011;16191;49.548;8.658;2022-08-03T02:12:18;8.00;;;1.40;;
29120;SDS011;16191;49.548;8.658;2022-08-03T02:14:47;2.37;;;1.43;;
29120;SDS011;16191;49.548;8.658;2022-08-03T02:17:14;1.75;;;1.02;;
29120;SDS011;16191;49.548;8.658;2022-08-03T02:19:42;1.30;;;1.20;;
29120;SDS011;16191;49.548;8.658;2022-08-03T02:22:10;3.35;;;1.30;;
29120;SDS011;16191;49.548;8.658;2022-08-03T02:24:38;2.95;;;1.20;;
29120;SDS011;16191;49.548;8.658;2022-08-03T02:27:07;2.80;;;1.10;;
29120;SDS011;16191;49.548;8.658;2022-08-03T02:29:39;5.35;;;1.27;;
29120;SDS011;16191;49.548;8.658;2022-08-03T02:32:09;1.38;;;0.88;;
29120;SDS011;16191;49.548;8.658;2022-08-03T02:34:39;2.10;;;1.15;;
29120;SDS011;16191;49.548;8.658;2022-08-03T02:37:11;1.40;;;1.05;;
29120;SDS011;16191;49.548;8.658;2022-08-03T02:39:38;4.72;;;1.40;;
29120;SDS011;16191;49.548;8.658;2022-08-03T02:42:07;2.03;;;1.00;;
29120;SDS011;16191;49.548;8.658;2022-08-03T02:47:06;3.45;;;1.20;;
29120;SDS011;16191;49.548;8.658;2022-08-03T02:49:36;2.50;;;1.30;;
29120;SDS011;16191;49.548;8.658;2022-08-03T02:52:19;3.15;;;1.48;;
29120;SDS011;16191;49.548;8.658;2022-08-03T02:54:49;2.45;;;0.93;;
29120;SDS011;16191;49.548;8.658;2022-08-03T02:57:19;1.83;;;1.08;;
29120;SDS011;16191;49.548;8.658;2022-08-03T02:59:48;2.67;;;1.27;;
29120;SDS011;16191;49.548;8.658;2022-08-03T03:02:16;1.48;;;1.10;;
29120;SDS011;16191;49.548;8.658;2022-08-03T03:04:44;1.83;;;1.02;;
29120;SDS011;16191;49.548;8.658;2022-08-03T03:07:32;2.95;;;0.90;;
29120;SDS011;16191;49.548;8.658;2022-08-03T03:10:18;1.95;;;1.10;;
29120;SDS011;16191;49.548;8.658;2022-08-03T03:12:47;1.42;;;1.10;;
29120;SDS011;16191;49.548;8.658;2022-08-03T03:15:16;3.90;;;1.13;;
29120;SDS011;16191;49.548;8.658;2022-08-03T03:17:44;1.20;;;1.10;;
29120;SDS011;16191;49.548;8.658;2022-08-03T03:20:11;2.75;;;1.35;;
29120;SDS011;16191;49.548;8.658;2022-08-03T03:22:40;3.42;;;1.20;;
29120;SDS011;16191;49.548;8.658;2022-08-03T03:25:10;4.43;;;1.40;;
29120;SDS011;16191;49.548;8.658;2022-08-03T03:27:37;1.23;;;1.02;;
29120;SDS011;16191;49.548;8.658;2022-08-03T03:30:05;1.60;;;1.30;;
29120;SDS011;16191;49.548;8.658;2022-08-03T03:32:32;4.72;;;1.27;;
29120;SDS011;16191;49.548;8.658;2022-08-03T03:34:59;2.67;;;1.33;;
29120;SDS011;16191;49.548;8.658;2022-08-03T03:37:26;1.63;;;0.95;;
29120;SDS011;16191;49.548;8.658;2022-08-03T03:39:53;1.63;;;1.23;;
29120;SDS011;16191;49.548;8.658;2022-08-03T03:42:20;3.63;;;1.20;;
29120;SDS011;16191;49.548;8.658;2022-08-03T03:44:46;1.77;;;1.10;;
29120;SDS011;16191;49.548;8.658;2022-08-03T03:47:13;3.10;;;1.13;;
29120;SDS011;16191;49.548;8.658;2022-08-03T03:49:42;3.85;;;1.30;;
29120;SDS011;16191;49.548;8.658;2022-08-03T03:52:09;2.38;;;1.40;;
29120;SDS011;16191;49.548;8.658;2022-08-03T03:54:39;2.63;;;1.33;;
29120;SDS011;16191;49.548;8.658;2022-08-03T03:57:07;2.92;;;1.15;;
29120;SDS011;16191;49.548;8.658;2022-08-03T03:59:39;1.65;;;1.40;;
29120;SDS011;16191;49.548;8.658;2022-08-03T04:02:07;2.13;;;1.35;;
29120;SDS011;16191;49.548;8.658;2022-08-03T04:04:36;1.40;;;1.20;;
29120;SDS011;16191;49.548;8.658;2022-08-03T04:07:22;4.22;;;1.30;;
29120;SDS011;16191;49.548;8.658;2022-08-03T04:10:10;3.88;;;1.30;;
29120;SDS011;16191;49.548;8.658;2022-08-03T04:12:59;1.98;;;1.00;;
29120;SDS011;16191;49.548;8.658;2022-08-03T04:15:29;2.88;;;1.60;;
29120;SDS011;16191;49.548;8.658;2022-08-03T04:17:58;3.22;;;1.13;;
29120;SDS011;16191;49.548;8.658;2022-08-03T04:20:29;2.72;;;1.02;;
29120;SDS011;16191;49.548;8.658;2022-08-03T04:22:57;2.10;;;1.05;;
29120;SDS011;16191;49.548;8.658;2022-08-03T04:25:27;3.85;;;1.38;;
29120;SDS011;16191;49.548;8.658;2022-08-03T04:27:58;1.65;;;1.20;;
29120;SDS011;16191;49.548;8.658;2022-08-03T04:30:46;1.75;;;1.35;;
29120;SDS011;16191;49.548;8.658;2022-08-03T04:33:16;6.47;;;1.25;;
29120;SDS011;16191;49.548;8.658;2022-08-03T04:35:45;3.42;;;1.23;;
29120;SDS011;16191;49.548;8.658;2022-08-03T04:38:28;1.92;;;1.00;;
29120;SDS011;16191;49.548;8.658;2022-08-03T04:40:56;2.08;;;1.15;;
29120;SDS011;16191;49.548;8.658;2022-08-03T04:43:25;2.92;;;1.20;;
29120;SDS011;16191;49.548;8.658;2022-08-03T04:45:53;3.13;;;1.20;;
29120;SDS011;16191;49.548;8.658;2022-08-03T04:48:20;1.25;;;0.90;;
29120;SDS011;16191;49.548;8.658;2022-08-03T04:50:48;1.20;;;1.10;;
29120;SDS011;16191;49.548;8.658;2022-08-03T04:53:14;1.50;;;1.25;;
29120;SDS011;16191;49.548;8.658;2022-08-03T04:55:41;5.18;;;1.20;;
29120;SDS011;16191;49.548;8.658;2022-08-03T04:58:08;3.20;;;1.20;;
29120;SDS011;16191;49.548;8.658;2022-08-03T05:00:34;2.33;;;1.00;;
29120;SDS011;16191;49.548;8.658;2022-08-03T05:03:01;4.70;;;1.13;;
29120;SDS011;16191;49.548;8.658;2022-08-03T05:05:28;3.55;;;1.20;;
29120;SDS011;16191;49.548;8.658;2022-08-03T05:08:14;7.07;;;1.20;;
29120;SDS011;16191;49.548;8.658;2022-08-03T05:10:46;1.27;;;1.00;;
29120;SDS011;16191;49.548;8.658;2022-08-03T05:13:13;7.40;;;1.30;;
29120;SDS011;16191;49.548;8.658;2022-08-03T05:15:39;3.40;;;1.20;;
29120;SDS011;16191;49.548;8.658;2022-08-03T05:18:08;1.73;;;1.20;;
29120;SDS011;16191;49.548;8.658;2022-08-03T05:20:39;3.13;;;1.20;;
29120;SDS011;16191;49.548;8.658;2022-08-03T05:23:06;2.67;;;1.10;;
29120;SDS011;16191;49.548;8.658;2022-08-03T05:25:33;2.95;;;1.15;;
29120;SDS011;16191;49.548;8.658;2022-08-03T05:27:59;2.53;;;1.40;;
29120;SDS011;16191;49.548;8.658;2022-08-03T05:30:26;3.97;;;1.30;;
29120;SDS011;16191;49.548;8.658;2022-08-03T05:33:00;2.00;;;1.20;;
29120;SDS011;16191;49.548;8.658;2022-08-03T05:35:28;2.15;;;1.30;;
29120;SDS011;16191;49.548;8.658;2022-08-03T05:38:18;1.55;;;1.05;;
29120;SDS011;16191;49.548;8.658;2022-08-03T05:40:54;9.82;;;1.33;;
29120;SDS011;16191;49.548;8.658;2022-08-03T05:43:41;4.00;;;1.50;;
29120;SDS011;16191;49.548;8.658;2022-08-03T05:46:08;4.88;;;1.42;;
29120;SDS011;16191;49.548;8.658;2022-08-03T05:48:37;3.75;;;1.30;;
29120;SDS011;16191;49.548;8.658;2022-08-03T05:51:04;2.50;;;1.20;;
29120;SDS011;16191;49.548;8.658;2022-08-03T05:53:33;5.57;;;1.17;;
29120;SDS011;16191;49.548;8.658;2022-08-03T05:56:00;4.90;;;1.30;;
29120;SDS011;16191;49.548;8.658;2022-08-03T05:58:46;1.95;;;1.10;;
29120;SDS011;16191;49.548;8.658;2022-08-03T06:01:14;2.10;;;1.25;;
29120;SDS011;16191;49.548;8.658;2022-08-03T06:03:41;3.45;;;1.23;;
29120;SDS011;16191;49.548;8.658;2022-08-03T06:06:08;4.80;;;1.52;;
29120;SDS011;16191;49.548;8.658;2022-08-03T06:08:35;4.95;;;1.50;;
29120;SDS011;16191;49.548;8.658;2022-08-03T06:11:02;5.20;;;1.75;;
29120;SDS011;16191;49.548;8.658;2022-08-03T06:13:30;4.60;;;1.60;;
29120;SDS011;16191;49.548;8.658;2022-08-03T06:15:57;8.50;;;1.65;;
29120;SDS011;16191;49.548;8.658;2022-08-03T06:18:24;7.45;;;1.55;;
29120;SDS011;16191;49.548;8.658;2022-08-03T06:20:50;10.93;;;1.63;;
29120;SDS011;16191;49.548;8.658;2022-08-03T06:23:18;4.03;;;1.40;;
29120;SDS011;16191;49.548;8.658;2022-08-03T06:25:45;2.03;;;1.30;;
29120;SDS011;16191;49.548;8.658;2022-08-03T06:28:12;1.75;;;1.00;;
29120;SDS011;16191;49.548;8.658;2022-08-03T06:31:03;3.88;;;1.20;;
29120;SDS011;16191;49.548;8.658;2022-08-03T06:33:32;1.80;;;1.02;;
29120;SDS011;16191;49.548;8.658;2022-08-03T06:36:18;4.35;;;1.40;;
29120;SDS011;16191;49.548;8.658;2022-08-03T06:38:45;3.10;;;1.50;;
29120;SDS011;16191;49.548;8.658;2022-08-03T06:41:11;2.15;;;1.38;;
29120;SDS011;16191;49.548;8.658;2022-08-03T06:43:38;4.20;;;1.30;;
29120;SDS011;16191;49.548;8.658;2022-08-03T06:46:24;5.32;;;1.25;;
29120;SDS011;16191;49.548;8.658;2022-08-03T06:48:51;6.22;;;1.15;;
29120;SDS011;16191;49.548;8.658;2022-08-03T06:51:17;1.70;;;1.30;;
29120;SDS011;16191;49.548;8.658;2022-08-03T06:53:44;5.18;;;1.55;;
29120;SDS011;16191;49.548;8.658;2022-08-03T06:56:11;5.93;;;1.30;;
29120;SDS011;16191;49.548;8.658;2022-08-03T06:58:38;9.23;;;2.05;;
29120;SDS011;16191;49.548;8.658;2022-08-03T07:01:04;6.78;;;2.13;;
29120;SDS011;16191;49.548;8.658;2022-08-03T07:03:31;6.10;;;1.88;;
29120;SDS011;16191;49.548;8.658;2022-08-03T07:05:58;4.55;;;1.70;;
29120;SDS011;16191;49.548;8.658;2022-08-03T07:08:24;9.23;;;2.40;;
29120;SDS011;16191;49.548;8.658;2022-08-03T07:10:59;5.53;;;2.03;;
29120;SDS011;16191;49.548;8.658;2022-08-03T07:13:26;5.88;;;2.05;;
29120;SDS011;16191;49.548;8.658;2022-08-03T07:15:53;10.77;;;2.28;;
29120;SDS011;16191;49.548;8.658;2022-08-03T07:18:21;9.07;;;2.05;;
29120;SDS011;16191;49.548;8.658;2022-08-03T07:20:55;6.60;;;2.40;;
29120;SDS011;16191;49.548;8.658;2022-08-03T07:23:22;6.65;;;2.58;;
29120;SDS011;16191;49.548;8.658;2022-08-03T07:25:49;5.47;;;2.00;;
29120;SDS011;16191;49.548;8.658;2022-08-03T07:28:16;4.03;;;2.22;;
29120;SDS011;16191;49.548;8.658;2022-08-03T07:30:43;7.00;;;2.22;;
29120;SDS011;16191;49.548;8.658;2022-08-03T07:33:09;2.85;;;1.90;;
29120;SDS011;16191;49.548;8.658;2022-08-03T07:35:36;6.05;;;1.90;;
29120;SDS011;16191;49.548;8.658;2022-08-03T07:38:02;7.38;;;1.80;;
29120;SDS011;16191;49.548;8.658;2022-08-03T07:40:29;4.65;;;1.73;;
29120;SDS011;16191;49.548;8.658;2022-08-03T07:42:57;3.53;;;1.48;;
29120;SDS011;16191;49.548;8.658;2022-08-03T07:45:23;3.25;;;1.80;;
29120;SDS011;16191;49.548;8.658;2022-08-03T07:47:51;9.38;;;2.00;;
29120;SDS011;16191;49.548;8.658;2022-08-03T07:50:19;10.23;;;2.00;;
29120;SDS011;16191;49.548;8.658;2022-08-03T07:52:47;3.92;;;1.83;;
29120;SDS011;16191;49.548;8.658;2022-08-03T07:55:18;6.68;;;1.70;;
29120;SDS011;16191;49.548;8.658;2022-08-03T07:57:47;4.93;;;1.65;;
29120;SDS011;16191;49.548;8.658;2022-08-03T08:00:24;4.32;;;1.60;;
29120;SDS011;16191;49.548;8.658;2022-08-03T08:02:50;4.57;;;1.38;;
29120;SDS011;16191;49.548;8.658;2022-08-03T08:05:17;4.35;;;1.63;;
29120;SDS011;16191;49.548;8.658;2022-08-03T08:07:44;6.53;;;1.92;;
29120;SDS011;16191;49.548;8.658;2022-08-03T08:10:17;3.63;;;1.45;;
29120;SDS011;16191;49.548;8.658;2022-08-03T08:12:44;4.03;;;1.33;;
29120;SDS011;16191;49.548;8.658;2022-08-03T08:15:11;8.82;;;1.77;;
29120;SDS011;16191;49.548;8.658;2022-08-03T08:17:48;2.88;;;1.33;;
29120;SDS011;16191;49.548;8.658;2022-08-03T08:20:18;2.35;;;1.55;;
29120;SDS011;16191;49.548;8.658;2022-08-03T08:22:54;5.57;;;2.10;;
29120;SDS011;16191;49.548;8.658;2022-08-03T08:25:23;10.68;;;1.73;;
29120;SDS011;16191;49.548;8.658;2022-08-03T08:27:50;6.85;;;1.27;;
29120;SDS011;16191;49.548;8.658;2022-08-03T08:30:38;6.93;;;1.30;;
29120;SDS011;16191;49.548;8.658;2022-08-03T08:33:04;3.85;;;1.45;;
29120;SDS011;16191;49.548;8.658;2022-08-03T08:35:31;6.53;;;1.70;;
29120;SDS011;16191;49.548;8.658;2022-08-03T08:37:58;3.65;;;1.60;;
29120;SDS011;16191;49.548;8.658;2022-08-03T08:40:31;3.00;;;1.45;;
29120;SDS011;16191;49.548;8.658;2022-08-03T08:42:58;5.55;;;1.67;;
29120;SDS011;16191;49.548;8.658;2022-08-03T08:45:25;7.65;;;1.58;;
29120;SDS011;16191;49.548;8.658;2022-08-03T08:47:51;5.32;;;1.50;;
29120;SDS011;16191;49.548;8.658;2022-08-03T08:50:26;6.82;;;1.70;;
29120;SDS011;16191;49.548;8.658;2022-08-03T08:52:53;4.85;;;1.65;;
29120;SDS011;16191;49.548;8.658;2022-08-03T08:55:22;3.83;;;1.42;;
29120;SDS011;16191;49.548;8.658;2022-08-03T08:57:51;10.23;;;1.90;;
29120;SDS011;16191;49.548;8.658;2022-08-03T09:00:31;5.90;;;1.60;;
29120;SDS011;16191;49.548;8.658;2022-08-03T09:02:57;3.58;;;1.30;;
29120;SDS011;16191;49.548;8.658;2022-08-03T09:05:26;3.08;;;1.33;;
29120;SDS011;16191;49.548;8.658;2022-08-03T09:08:13;4.78;;;1.58;;
29120;SDS011;16191;49.548;8.658;2022-08-03T09:10:39;4.43;;;1.23;;
29120;SDS011;16191;49.548;8.658;2022-08-03T09:13:06;3.38;;;1.45;;
29120;SDS011;16191;49.548;8.658;2022-08-03T09:15:33;3.60;;;1.42;;
29120;SDS011;16191;49.548;8.658;2022-08-03T09:18:02;2.75;;;1.40;;
29120;SDS011;16191;49.548;8.658;2022-08-03T09:20:30;6.95;;;1.83;;
29120;SDS011;16191;49.548;8.658;2022-08-03T09:23:03;6.18;;;1.55;;
29120;SDS011;16191;49.548;8.658;2022-08-03T09:25:57;4.97;;;1.20;;
29120;SDS011;16191;49.548;8.658;2022-08-03T09:28:25;6.60;;;1.10;;
29120;SDS011;16191;49.548;8.658;2022-08-03T09:31:27;3.35;;;1.00;;
29120;SDS011;16191;49.548;8.658;2022-08-03T09:33:55;3.47;;;1.40;;
29120;SDS011;16191;49.548;8.658;2022-08-03T09:36:45;2.25;;;1.27;;
29120;SDS011;16191;49.548;8.658;2022-08-03T09:39:16;2.05;;;1.27;;
29120;SDS011;16191;49.548;8.658;2022-08-03T09:41:48;2.42;;;1.35;;
29120;SDS011;16191;49.548;8.658;2022-08-03T09:44:37;9.50;;;1.90;;
29120;SDS011;16191;49.548;8.658;2022-08-03T09:47:07;3.90;;;1.40;;
29120;SDS011;16191;49.548;8.658;2022-08-03T09:49:36;2.72;;;1.00;;
29120;SDS011;16191;49.548;8.658;2022-08-03T09:54:59;3.20;;;1.20;;
29120;SDS011;16191;49.548;8.658;2022-08-03T09:57:28;5.05;;;1.20;;
29120;SDS011;16191;49.548;8.658;2022-08-03T10:00:10;6.00;;;1.50;;
29120;SDS011;16191;49.548;8.658;2022-08-03T10:02:39;4.07;;;1.10;;
29120;SDS011;16191;49.548;8.658;2022-08-03T10:05:07;2.30;;;1.20;;
29120;SDS011;16191;49.548;8.658;2022-08-03T10:10:11;4.10;;;1.20;;
29120;SDS011;16191;49.548;8.658;2022-08-03T10:12:57;3.65;;;1.42;;
29120;SDS011;16191;49.548;8.658;2022-08-03T10:15:25;1.77;;;1.27;;
29120;SDS011;16191;49.548;8.658;2022-08-03T10:18:12;1.65;;;1.10;;
29120;SDS011;16191;49.548;8.658;2022-08-03T10:20:48;1.63;;;1.15;;
29120;SDS011;16191;49.548;8.658;2022-08-03T10:23:18;1.58;;;1.02;;
29120;SDS011;16191;49.548;8.658;2022-08-03T10:25:48;6.72;;;1.40;;
29120;SDS011;16191;49.548;8.658;2022-08-03T10:28:21;4.03;;;1.20;;
29120;SDS011;16191;49.548;8.658;2022-08-03T10:30:49;5.68;;;1.10;;
29120;SDS011;16191;49.548;8.658;2022-08-03T10:33:19;2.53;;;1.27;;
29120;SDS011;16191;49.548;8.658;2022-08-03T10:36:09;6.43;;;1.20;;
29120;SDS011;16191;49.548;8.658;2022-08-03T10:38:46;5.63;;;1.10;;
29120;SDS011;16191;49.548;8.658;2022-08-03T10:41:20;4.28;;;1.15;;
29120;SDS011;16191;49.548;8.658;2022-08-03T10:43:49;2.60;;;1.23;;
29120;SDS011;16191;49.548;8.658;2022-08-03T10:46:21;3.15;;;1.27;;
29120;SDS011;16191;49.548;8.658;2022-08-03T10:48:48;2.63;;;0.98;;
29120;SDS011;16191;49.548;8.658;2022-08-03T10:51:17;1.92;;;1.38;;
29120;SDS011;16191;49.548;8.658;2022-08-03T10:53:45;2.05;;;1.20;;
29120;SDS011;16191;49.548;8.658;2022-08-03T11:02:11;10.35;;;1.25;;
29120;SDS011;16191;49.548;8.658;2022-08-03T11:04:39;8.93;;;1.20;;
29120;SDS011;16191;49.548;8.658;2022-08-03T11:07:23;5.13;;;1.13;;
29120;SDS011;16191;49.548;8.658;2022-08-03T11:09:54;3.92;;;0.93;;
29120;SDS011;16191;49.548;8.658;2022-08-03T11:12:22;3.40;;;1.30;;
29120;SDS011;16191;49.548;8.658;2022-08-03T11:15:00;2.65;;;0.80;;
29120;SDS011;16191;49.548;8.658;2022-08-03T11:17:30;2.67;;;1.08;;
29120;SDS011;16191;49.548;8.658;2022-08-03T11:20:12;8.75;;;1.30;;
29120;SDS011;16191;49.548;8.658;2022-08-03T11:22:48;2.45;;;1.10;;
29120;SDS011;16191;49.548;8.658;2022-08-03T11:25:19;2.92;;;1.08;;
29120;SDS011;16191;49.548;8.658;2022-08-03T11:28:25;4.40;;;1.13;;
29120;SDS011;16191;49.548;8.658;2022-08-03T11:30:53;5.47;;;1.00;;
29120;SDS011;16191;49.548;8.658;2022-08-03T11:33:29;2.05;;;1.08;;
29120;SDS011;16191;49.548;8.658;2022-08-03T11:35:57;2.67;;;1.00;;
29120;SDS011;16191;49.548;8.658;2022-08-03T11:38:25;5.30;;;1.30;;
29120;SDS011;16191;49.548;8.658;2022-08-03T11:40:52;3.80;;;1.02;;
29120;SDS011;16191;49.548;8.658;2022-08-03T11:45:57;7.00;;;1.02;;
29120;SDS011;16191;49.548;8.658;2022-08-03T11:48:26;3.30;;;1.10;;
29120;SDS011;16191;49.548;8.658;2022-08-03T11:50:53;2.47;;;1.00;;
29120;SDS011;16191;49.548;8.658;2022-08-03T11:53:20;2.08;;;0.93;;
29120;SDS011;16191;49.548;8.658;2022-08-03T11:55:46;1.63;;;0.98;;
29120;SDS011;16191;49.548;8.658;2022-08-03T11:58:18;7.82;;;1.00;;
29120;SDS011;16191;49.548;8.658;2022-08-03T12:01:08;3.22;;;1.00;;
29120;SDS011;16191;49.548;8.658;2022-08-03T12:03:37;2.10;;;1.08;;
29120;SDS011;16191;49.548;8.658;2022-08-03T12:06:07;2.50;;;0.93;;
29120;SDS011;16191;49.548;8.658;2022-08-03T12:08:35;3.22;;;1.10;;
29120;SDS011;16191;49.548;8.658;2022-08-03T12:11:02;1.58;;;0.80;;
29120;SDS011;16191;49.548;8.658;2022-08-03T12:13:36;4.32;;;1.10;;
29120;SDS011;16191;49.548;8.658;2022-08-03T12:16:29;1.55;;;0.85;;
29120;SDS011;16191;49.548;8.658;2022-08-03T12:19:03;5.13;;;0.98;;
29120;SDS011;16191;49.548;8.658;2022-08-03T12:21:31;3.85;;;0.85;;
29120;SDS011;16191;49.548;8.658;2022-08-03T12:24:02;1.77;;;1.10;;
29120;SDS011;16191;49.548;8.658;2022-08-03T12:26:42;8.35;;;1.00;;
29120;SDS011;16191;49.548;8.658;2022-08-03T12:29:23;1.83;;;0.88;;
29120;SDS011;16191;49.548;8.658;2022-08-03T12:31:50;2.10;;;1.08;;
29120;SDS011;16191;49.548;8.658;2022-08-03T12:34:17;4.93;;;1.02;;
29120;SDS011;16191;49.548;8.658;2022-08-03T12:36:51;2.22;;;0.93;;
29120;SDS011;16191;49.548;8.658;2022-08-03T12:39:21;3.95;;;0.98;;
29120;SDS011;16191;49.548;8.658;2022-08-03T12:41:51;1.00;;;0.73;;
29120;SDS011;16191;49.548;8.658;2022-08-03T12:44:28;3.88;;;0.90;;
29120;SDS011;16191;49.548;8.658;2022-08-03T12:46:56;3.83;;;0.90;;
29120;SDS011;16191;49.548;8.658;2022-08-03T12:49:24;2.45;;;1.10;;
29120;SDS011;16191;49.548;8.658;2022-08-03T12:54:19;1.38;;;0.88;;
29120;SDS011;16191;49.548;8.658;2022-08-03T12:57:11;1.63;;;0.73;;
29120;SDS011;16191;49.548;8.658;2022-08-03T12:59:42;3.80;;;0.90;;
29120;SDS011;16191;49.548;8.658;2022-08-03T13:02:20;5.93;;;0.98;;
29120;SDS011;16191;49.548;8.658;2022-08-03T13:04:49;3.83;;;0.95;;
29120;SDS011;16191;49.548;8.658;2022-08-03T13:07:17;2.83;;;0.93;;
29120;SDS011;16191;49.548;8.658;2022-08-03T13:09:49;3.55;;;0.98;;
29120;SDS011;16191;49.548;8.658;2022-08-03T13:12:23;3.60;;;0.90;;
29120;SDS011;16191;49.548;8.658;2022-08-03T13:14:56;1.08;;;0.73;;
29120;SDS011;16191;49.548;8.658;2022-08-03T13:17:24;5.10;;;1.10;;
29120;SDS011;16191;49.548;8.658;2022-08-03T13:19:52;2.47;;;1.02;;
29120;SDS011;16191;49.548;8.658;2022-08-03T13:22:20;3.78;;;0.90;;
29120;SDS011;16191;49.548;8.658;2022-08-03T13:24:54;2.97;;;0.80;;
29120;SDS011;16191;49.548;8.658;2022-08-03T13:27:23;2.78;;;0.90;;
29120;SDS011;16191;49.548;8.658;2022-08-03T13:30:10;4.07;;;1.10;;
29120;SDS011;16191;49.548;8.658;2022-08-03T13:32:36;1.85;;;0.85;;
29120;SDS011;16191;49.548;8.658;2022-08-03T13:35:03;9.45;;;1.10;;
29120;SDS011;16191;49.548;8.658;2022-08-03T13:37:31;6.45;;;1.20;;
29120;SDS011;16191;49.548;8.658;2022-08-03T13:39:58;2.60;;;0.80;;
29120;SDS011;16191;49.548;8.658;2022-08-03T13:42:28;5.78;;;0.98;;
29120;SDS011;16191;49.548;8.658;2022-08-03T13:44:56;9.13;;;1.00;;
29120;SDS011;16191;49.548;8.658;2022-08-03T13:47:22;3.88;;;1.02;;
29120;SDS011;16191;49.548;8.658;2022-08-03T13:49:49;3.13;;;0.93;;
29120;SDS011;16191;49.548;8.658;2022-08-03T13:52:27;2.05;;;1.02;;
29120;SDS011;16191;49.548;8.658;2022-08-03T13:54:55;5.45;;;0.85;;
29120;SDS011;16191;49.548;8.658;2022-08-03T13:57:22;3.75;;;1.00;;
29120;SDS011;16191;49.548;8.658;2022-08-03T14:00:08;2.83;;;1.08;;
29120;SDS011;16191;49.548;8.658;2022-08-03T14:02:36;2.42;;;0.70;;
29120;SDS011;16191;49.548;8.658;2022-08-03T14:05:03;1.88;;;0.70;;
29120;SDS011;16191;49.548;8.658;2022-08-03T14:07:30;3.22;;;1.10;;
29120;SDS011;16191;49.548;8.658;2022-08-03T14:09:57;2.47;;;0.93;;
29120;SDS011;16191;49.548;8.658;2022-08-03T14:12:23;2.92;;;0.82;;
29120;SDS011;16191;49.548;8.658;2022-08-03T14:14:50;5.43;;;0.88;;
29120;SDS011;16191;49.548;8.658;2022-08-03T14:17:16;5.38;;;0.70;;
29120;SDS011;16191;49.548;8.658;2022-08-03T14:19:43;4.93;;;0.95;;
29120;SDS011;16191;49.548;8.658;2022-08-03T14:22:19;7.88;;;0.82;;
29120;SDS011;16191;49.548;8.658;2022-08-03T14:24:46;2.03;;;0.60;;
29120;SDS011;16191;49.548;8.658;2022-08-03T14:27:14;1.10;;;0.80;;
29120;SDS011;16191;49.548;8.658;2022-08-03T14:29:41;7.57;;;1.20;;
29120;SDS011;16191;49.548;8.658;2022-08-03T14:32:08;1.08;;;0.70;;
29120;SDS011;16191;49.548;8.658;2022-08-03T14:34:38;1.63;;;0.95;;
29120;SDS011;16191;49.548;8.658;2022-08-03T14:37:06;1.52;;;0.70;;
29120;SDS011;16191;49.548;8.658;2022-08-03T14:39:32;3.55;;;0.93;;
29120;SDS011;16191;49.548;8.658;2022-08-03T14:42:20;1.67;;;0.80;;
29120;SDS011;16191;49.548;8.658;2022-08-03T14:44:46;4.43;;;0.70;;
29120;SDS011;16191;49.548;8.658;2022-08-03T14:47:13;10.95;;;0.68;;
29120;SDS011;16191;49.548;8.658;2022-08-03T14:49:40;3.88;;;0.77;;
29120;SDS011;16191;49.548;8.658;2022-08-03T14:52:27;4.72;;;0.80;;
29120;SDS011;16191;49.548;8.658;2022-08-03T14:54:54;0.85;;;0.50;;
29120;SDS011;16191;49.548;8.658;2022-08-03T14:57:20;4.05;;;0.70;;
29120;SDS011;16191;49.548;8.658;2022-08-03T14:59:47;1.20;;;0.73;;
29120;SDS011;16191;49.548;8.658;2022-08-03T15:02:23;6.32;;;0.60;;
29120;SDS011;16191;49.548;8.658;2022-08-03T15:04:50;5.43;;;0.68;;
29120;SDS011;16191;49.548;8.658;2022-08-03T15:07:18;1.45;;;0.77;;
29120;SDS011;16191;49.548;8.658;2022-08-03T15:09:46;4.72;;;0.98;;
29120;SDS011;16191;49.548;8.658;2022-08-03T15:12:12;3.42;;;0.52;;
29120;SDS011;16191;49.548;8.658;2022-08-03T15:14:39;2.63;;;0.80;;
29120;SDS011;16191;49.548;8.658;2022-08-03T15:17:06;1.58;;;0.60;;
29120;SDS011;16191;49.548;8.658;2022-08-03T15:19:32;6.07;;;0.80;;
29120;SDS011;16191;49.548;8.658;2022-08-03T15:22:19;3.88;;;1.05;;
29120;SDS011;16191;49.548;8.658;2022-08-03T15:25:03;5.18;;;0.90;;
29120;SDS011;16191;49.548;8.658;2022-08-03T15:27:51;1.77;;;0.63;;
29120;SDS011;16191;49.548;8.658;2022-08-03T15:30:30;6.57;;;0.80;;
29120;SDS011;16191;49.548;8.658;2022-08-03T15:33:01;1.70;;;0.60;;
29120;SDS011;16191;49.548;8.658;2022-08-03T15:35:28;0.88;;;0.50;;
29120;SDS011;16191;49.548;8.658;2022-08-03T15:37:54;4.15;;;0.70;;
29120;SDS011;16191;49.548;8.658;2022-08-03T15:40:21;1.27;;;0.57;;
29120;SDS011;16191;49.548;8.658;2022-08-03T15:42:47;2.58;;;0.77;;
29120;SDS011;16191;49.548;8.658;2022-08-03T15:45:14;2.95;;;0.85;;